sensor_id;sensor_type;location;lat;lon;timestamp;pressure;altitude;pressure_sealevel;temperature;humidity
54994;BME280;40891;47.242;8.648;2023-04-01T00:01:12;95449.28;;;8.53;85.43
54994;BME280;40891;47.242;8.648;2023-04-01T00:03:39;95435.28;;;8.47;87.22
54994;BME280;40891;47.242;8.648;2023-04-01T00:06:04;95442.50;;;8.45;85.85
54994;BME280;40891;47.242;8.648;2023-04-01T00:08:30;95443.47;;;8.42;86.20
54994;BME280;40891;47.242;8.648;2023-04-01T00:10:56;95441.59;;;8.48;86.23
54994;BME280;40891;47.242;8.648;2023-04-01T00:13:23;95450.38;;;8.46;85.76
54994;BME280;40891;47.242;8.648;2023-04-01T00:15:48;95440.38;;;8.58;83.69
54994;BME280;40891;47.242;8.648;2023-04-01T00:18:14;95437.00;;;8.63;83.33
54994;BME280;40891;47.242;8.648;2023-04-01T00:20:44;95433.63;;;8.59;83.89
54994;BME280;40891;47.242;8.648;2023-04-01T00:23:10;95431.59;;;8.59;83.19
54994;BME280;40891;47.242;8.648;2023-04-01T00:25:35;95437.91;;;8.60;82.60
54994;BME280;40891;47.242;8.648;2023-04-01T00:28:02;95437.59;;;8.58;83.09
54994;BME280;40891;47.242;8.648;2023-04-01T00:30:27;95437.75;;;8.63;82.92
54994;BME280;40891;47.242;8.648;2023-04-01T00:32:53;95441.94;;;8.59;82.70
54994;BME280;40891;47.242;8.648;2023-04-01T00:35:18;95450.06;;;8.62;81.37
54994;BME280;40891;47.242;8.648;2023-04-01T00:37:44;95442.66;;;8.68;81.49
54994;BME280;40891;47.242;8.648;2023-04-01T00:40:23;95443.00;;;8.70;81.95
54994;BME280;40891;47.242;8.648;2023-04-01T00:42:49;95438.19;;;8.71;80.76
54994;BME280;40891;47.242;8.648;2023-04-01T00:45:34;95444.19;;;8.78;79.85
54994;BME280;40891;47.242;8.648;2023-04-01T00:48:10;95435.59;;;8.76;79.93
54994;BME280;40891;47.242;8.648;2023-04-01T00:50:37;95435.59;;;8.76;79.31
54994;BME280;40891;47.242;8.648;2023-04-01T00:53:05;95438.34;;;8.85;78.21
54994;BME280;40891;47.242;8.648;2023-04-01T00:55:32;95441.44;;;8.78;79.26
54994;BME280;40891;47.242;8.648;2023-04-01T00:57:58;95434.97;;;8.81;78.45
54994;BME280;40891;47.242;8.648;2023-04-01T01:00:26;95454.38;;;8.81;77.79
54994;BME280;40891;47.242;8.648;2023-04-01T01:02:52;95446.03;;;8.90;77.17
54994;BME280;40891;47.242;8.648;2023-04-01T01:05:17;95434.66;;;8.79;79.20
54994;BME280;40891;47.242;8.648;2023-04-01T01:10:30;95442.50;;;8.72;78.98
54994;BME280;40891;47.242;8.648;2023-04-01T01:27:05;95442.25;;;8.52;80.32
54994;BME280;40891;47.242;8.648;2023-04-01T01:29:44;95436.84;;;8.48;81.42
54994;BME280;40891;47.242;8.648;2023-04-01T01:35:27;95441.59;;;8.39;82.40
54994;BME280;40891;47.242;8.648;2023-04-01T01:38:04;95436.97;;;8.36;81.95
54994;BME280;40891;47.242;8.648;2023-04-01T01:40:31;95432.69;;;8.35;81.67
54994;BME280;40891;47.242;8.648;2023-04-01T01:43:04;95442.53;;;8.27;83.87
54994;BME280;40891;47.242;8.648;2023-04-01T01:45:32;95432.66;;;8.26;84.53
54994;BME280;40891;47.242;8.648;2023-04-01T01:47:58;95437.25;;;8.19;84.06
54994;BME280;40891;47.242;8.648;2023-04-01T01:50:26;95437.75;;;8.27;82.80
54994;BME280;40891;47.242;8.648;2023-04-01T01:53:04;95435.09;;;8.23;84.82
54994;BME280;40891;47.242;8.648;2023-04-01T01:55:32;95426.19;;;8.19;84.61
54994;BME280;40891;47.242;8.648;2023-04-01T01:58:00;95435.09;;;8.14;85.05
54994;BME280;40891;47.242;8.648;2023-04-01T02:00:28;95422.81;;;8.15;84.38
54994;BME280;40891;47.242;8.648;2023-04-01T02:02:54;95415.09;;;8.10;84.45
54994;BME280;40891;47.242;8.648;2023-04-01T02:05:23;95418.66;;;8.11;83.29
54994;BME280;40891;47.242;8.648;2023-04-01T02:07:55;95419.72;;;8.04;85.14
54994;BME280;40891;47.242;8.648;2023-04-01T02:10:25;95420.63;;;8.01;85.15
54994;BME280;40891;47.242;8.648;2023-04-01T02:12:53;95419.56;;;7.99;85.04
54994;BME280;40891;47.242;8.648;2023-04-01T02:15:24;95410.63;;;7.95;85.49
54994;BME280;40891;47.242;8.648;2023-04-01T02:17:51;95408.31;;;7.93;86.24
54994;BME280;40891;47.242;8.648;2023-04-01T02:20:22;95402.16;;;7.89;87.41
54994;BME280;40891;47.242;8.648;2023-04-01T02:22:51;95401.41;;;7.89;86.29
54994;BME280;40891;47.242;8.648;2023-04-01T02:25:33;95398.78;;;7.94;85.23
54994;BME280;40891;47.242;8.648;2023-04-01T02:27:59;95397.59;;;8.04;84.33
54994;BME280;40891;47.242;8.648;2023-04-01T02:30:27;95403.44;;;8.06;82.46
54994;BME280;40891;47.242;8.648;2023-04-01T02:32:55;95402.66;;;8.06;82.71
54994;BME280;40891;47.242;8.648;2023-04-01T02:35:22;95400.97;;;7.99;82.65
54994;BME280;40891;47.242;8.648;2023-04-01T02:37:49;95398.50;;;8.01;81.85
54994;BME280;40891;47.242;8.648;2023-04-01T02:40:16;95404.03;;;8.10;80.92
54994;BME280;40891;47.242;8.648;2023-04-01T02:42:42;95408.50;;;8.17;81.30
54994;BME280;40891;47.242;8.648;2023-04-01T02:45:08;95396.03;;;8.21;80.00
54994;BME280;40891;47.242;8.648;2023-04-01T02:47:34;95390.34;;;8.25;80.28
54994;BME280;40891;47.242;8.648;2023-04-01T02:49:59;95395.44;;;8.27;79.81
54994;BME280;40891;47.242;8.648;2023-04-01T02:52:26;95386.69;;;8.28;78.60
54994;BME280;40891;47.242;8.648;2023-04-01T02:54:51;95386.69;;;8.37;77.94
54994;BME280;40891;47.242;8.648;2023-04-01T02:57:17;95377.28;;;8.44;76.86
54994;BME280;40891;47.242;8.648;2023-04-01T02:59:42;95374.97;;;8.51;75.17
54994;BME280;40891;47.242;8.648;2023-04-01T03:02:08;95370.22;;;8.52;75.71
54994;BME280;40891;47.242;8.648;2023-04-01T03:04:33;95379.75;;;8.51;75.69
54994;BME280;40891;47.242;8.648;2023-04-01T03:06:59;95377.13;;;8.47;76.16
54994;BME280;40891;47.242;8.648;2023-04-01T03:09:24;95372.34;;;8.57;74.27
54994;BME280;40891;47.242;8.648;2023-04-01T03:11:49;95358.19;;;8.55;74.21
54994;BME280;40891;47.242;8.648;2023-04-01T03:14:15;95368.03;;;8.65;73.84
54994;BME280;40891;47.242;8.648;2023-04-01T03:16:40;95364.66;;;8.61;73.27
54994;BME280;40891;47.242;8.648;2023-04-01T03:19:05;95372.50;;;8.62;72.78
54994;BME280;40891;47.242;8.648;2023-04-01T03:21:30;95371.13;;;8.58;73.26
54994;BME280;40891;47.242;8.648;2023-04-01T03:23:56;95372.97;;;8.61;72.11
54994;BME280;40891;47.242;8.648;2023-04-01T03:26:21;95380.19;;;8.58;72.11
54994;BME280;40891;47.242;8.648;2023-04-01T03:28:47;95376.34;;;8.56;72.21
54994;BME280;40891;47.242;8.648;2023-04-01T03:31:13;95391.88;;;8.62;70.29
54994;BME280;40891;47.242;8.648;2023-04-01T03:33:39;95389.28;;;8.68;69.93
54994;BME280;40891;47.242;8.648;2023-04-01T03:36:05;95378.47;;;8.70;70.53
54994;BME280;40891;47.242;8.648;2023-04-01T03:38:33;95372.34;;;8.66;70.50
54994;BME280;40891;47.242;8.648;2023-04-01T03:40:58;95375.13;;;8.66;70.50
54994;BME280;40891;47.242;8.648;2023-04-01T03:43:24;95373.09;;;8.57;70.58
54994;BME280;40891;47.242;8.648;2023-04-01T03:45:51;95364.34;;;8.59;71.13
54994;BME280;40891;47.242;8.648;2023-04-01T03:48:16;95373.59;;;8.56;70.94
54994;BME280;40891;47.242;8.648;2023-04-01T03:50:43;95369.91;;;8.59;70.74
54994;BME280;40891;47.242;8.648;2023-04-01T03:53:09;95376.97;;;8.60;71.72
54994;BME280;40891;47.242;8.648;2023-04-01T03:55:35;95381.75;;;8.50;71.53
54994;BME280;40891;47.242;8.648;2023-04-01T03:58:01;95385.13;;;8.54;71.75
54994;BME280;40891;47.242;8.648;2023-04-01T04:00:28;95374.03;;;8.54;71.34
54994;BME280;40891;47.242;8.648;2023-04-01T04:02:54;95374.69;;;8.49;71.71
54994;BME280;40891;47.242;8.648;2023-04-01T04:05:22;95374.66;;;8.58;71.29
54994;BME280;40891;47.242;8.648;2023-04-01T04:07:47;95371.13;;;8.49;72.58
54994;BME280;40891;47.242;8.648;2023-04-01T04:10:13;95370.81;;;8.56;70.73
54994;BME280;40891;47.242;8.648;2023-04-01T04:12:38;95376.50;;;8.52;72.25
54994;BME280;40891;47.242;8.648;2023-04-01T04:15:03;95370.34;;;8.48;71.85
54994;BME280;40891;47.242;8.648;2023-04-01T04:17:29;95386.84;;;8.52;71.90
54994;BME280;40891;47.242;8.648;2023-04-01T04:19:54;95386.06;;;8.51;72.20
54994;BME280;40891;47.242;8.648;2023-04-01T04:22:20;95381.75;;;8.50;71.14
54994;BME280;40891;47.242;8.648;2023-04-01T04:24:45;95371.91;;;8.49;72.01
54994;BME280;40891;47.242;8.648;2023-04-01T04:27:10;95378.97;;;8.50;72.10
54994;BME280;40891;47.242;8.648;2023-04-01T04:29:36;95379.75;;;8.51;72.43
54994;BME280;40891;47.242;8.648;2023-04-01T04:32:01;95387.28;;;8.50;72.29
54994;BME280;40891;47.242;8.648;2023-04-01T04:34:26;95386.69;;;8.46;72.23
54994;BME280;40891;47.242;8.648;2023-04-01T04:36:52;95398.66;;;8.52;71.89
54994;BME280;40891;47.242;8.648;2023-04-01T04:39:17;95391.28;;;8.58;71.12
54994;BME280;40891;47.242;8.648;2023-04-01T04:41:43;95388.97;;;8.66;69.57
54994;BME280;40891;47.242;8.648;2023-04-01T04:44:08;95392.97;;;8.65;70.75
54994;BME280;40891;47.242;8.648;2023-04-01T04:46:33;95398.50;;;8.65;71.05
54994;BME280;40891;47.242;8.648;2023-04-01T04:48:59;95411.72;;;8.70;70.82
54994;BME280;40891;47.242;8.648;2023-04-01T04:51:24;95412.34;;;8.65;71.52
54994;BME280;40891;47.242;8.648;2023-04-01T04:53:50;95420.97;;;8.67;72.26
54994;BME280;40891;47.242;8.648;2023-04-01T04:56:20;95419.00;;;8.58;75.39
54994;BME280;40891;47.242;8.648;2023-04-01T04:58:46;95434.97;;;8.45;77.91
54994;BME280;40891;47.242;8.648;2023-04-01T05:01:14;95426.66;;;8.45;77.15
54994;BME280;40891;47.242;8.648;2023-04-01T05:03:40;95434.69;;;8.43;77.39
54994;BME280;40891;47.242;8.648;2023-04-01T05:06:07;95427.16;;;8.35;79.02
54994;BME280;40891;47.242;8.648;2023-04-01T05:08:32;95443.75;;;8.35;79.86
54994;BME280;40891;47.242;8.648;2023-04-01T05:10:59;95431.09;;;8.24;83.57
54994;BME280;40891;47.242;8.648;2023-04-01T05:13:25;95431.88;;;8.16;83.75
54994;BME280;40891;47.242;8.648;2023-04-01T05:15:50;95427.88;;;8.08;85.14
54994;BME280;40891;47.242;8.648;2023-04-01T05:18:16;95420.94;;;8.03;85.38
54994;BME280;40891;47.242;8.648;2023-04-01T05:20:49;95416.19;;;7.95;85.05
54994;BME280;40891;47.242;8.648;2023-04-01T05:23:15;95423.41;;;8.01;83.27
54994;BME280;40891;47.242;8.648;2023-04-01T05:25:41;95437.25;;;8.01;83.55
54994;BME280;40891;47.242;8.648;2023-04-01T05:28:06;95438.03;;;8.02;84.96
54994;BME280;40891;47.242;8.648;2023-04-01T05:30:31;95431.41;;;8.08;83.50
54994;BME280;40891;47.242;8.648;2023-04-01T05:32:57;95421.84;;;8.09;82.78
54994;BME280;40891;47.242;8.648;2023-04-01T05:35:23;95424.78;;;8.15;81.83
54994;BME280;40891;47.242;8.648;2023-04-01T05:37:48;95433.72;;;8.10;82.61
54994;BME280;40891;47.242;8.648;2023-04-01T05:40:14;95432.19;;;8.09;83.39
54994;BME280;40891;47.242;8.648;2023-04-01T05:42:39;95438.03;;;8.11;83.49
54994;BME280;40891;47.242;8.648;2023-04-01T05:45:05;95431.41;;;8.17;82.71
54994;BME280;40891;47.242;8.648;2023-04-01T05:47:30;95443.41;;;8.23;81.75
54994;BME280;40891;47.242;8.648;2023-04-01T05:49:56;95448.06;;;8.27;83.03
54994;BME280;40891;47.242;8.648;2023-04-01T05:52:21;95443.47;;;8.42;80.68
54994;BME280;40891;47.242;8.648;2023-04-01T05:54:46;95444.84;;;8.46;79.50
54994;BME280;40891;47.242;8.648;2023-04-01T05:57:11;95440.22;;;8.43;81.47
54994;BME280;40891;47.242;8.648;2023-04-01T05:59:37;95445.16;;;8.39;80.62
54994;BME280;40891;47.242;8.648;2023-04-01T06:02:02;95437.75;;;8.36;82.61
54994;BME280;40891;47.242;8.648;2023-04-01T06:04:34;95435.28;;;8.29;82.85
54994;BME280;40891;47.242;8.648;2023-04-01T06:07:00;95439.00;;;8.35;81.71
54994;BME280;40891;47.242;8.648;2023-04-01T06:09:28;95450.53;;;8.43;82.65
54994;BME280;40891;47.242;8.648;2023-04-01T06:12:06;95445.91;;;8.58;81.04
54994;BME280;40891;47.242;8.648;2023-04-01T06:20:22;95452.66;;;8.93;82.33
54994;BME280;40891;47.242;8.648;2023-04-01T06:26:00;95450.16;;;9.04;80.29
54994;BME280;40891;47.242;8.648;2023-04-01T06:34:10;95446.44;;;9.16;78.06
54994;BME280;40891;47.242;8.648;2023-04-01T06:36:51;95441.19;;;9.18;77.05
54994;BME280;40891;47.242;8.648;2023-04-01T06:40:09;95439.94;;;9.28;77.38
54994;BME280;40891;47.242;8.648;2023-04-01T06:50:55;95415.75;;;9.62;74.56
54994;BME280;40891;47.242;8.648;2023-04-01T06:53:36;95422.22;;;9.68;73.88
54994;BME280;40891;47.242;8.648;2023-04-01T06:56:12;95424.31;;;9.73;75.38
54994;BME280;40891;47.242;8.648;2023-04-01T06:58:46;95432.44;;;9.52;73.41
54994;BME280;40891;47.242;8.648;2023-04-01T07:01:18;95426.75;;;9.47;72.75
54994;BME280;40891;47.242;8.648;2023-04-01T07:04:30;95423.19;;;9.46;73.16
54994;BME280;40891;47.242;8.648;2023-04-01T07:09:53;95420.09;;;9.53;73.30
54994;BME280;40891;47.242;8.648;2023-04-01T07:15:04;95413.09;;;9.67;73.80
54994;BME280;40891;47.242;8.648;2023-04-01T07:17:33;95420.47;;;9.70;72.88
54994;BME280;40891;47.242;8.648;2023-04-01T07:22:33;95423.25;;;9.70;73.46
54994;BME280;40891;47.242;8.648;2023-04-01T07:25:08;95418.66;;;9.67;72.64
54994;BME280;40891;47.242;8.648;2023-04-01T07:27:36;95417.09;;;9.66;73.87
54994;BME280;40891;47.242;8.648;2023-04-01T07:30:04;95421.13;;;9.65;76.96
54994;BME280;40891;47.242;8.648;2023-04-01T07:32:45;95428.09;;;9.61;75.11
54994;BME280;40891;47.242;8.648;2023-04-01T07:38:03;95432.69;;;9.64;77.37
54994;BME280;40891;47.242;8.648;2023-04-01T07:46:29;95427.16;;;9.87;75.29
54994;BME280;40891;47.242;8.648;2023-04-01T07:49:04;95435.56;;;10.02;77.11
54994;BME280;40891;47.242;8.648;2023-04-01T07:54:30;95427.34;;;10.16;74.30
54994;BME280;40891;47.242;8.648;2023-04-01T07:57:07;95438.59;;;10.13;73.16
54994;BME280;40891;47.242;8.648;2023-04-01T07:59:45;95433.06;;;10.13;72.93
54994;BME280;40891;47.242;8.648;2023-04-01T08:18:59;95451.63;;;10.69;71.74
54994;BME280;40891;47.242;8.648;2023-04-01T08:21:39;95436.28;;;10.59;70.70
54994;BME280;40891;47.242;8.648;2023-04-01T08:24:39;95438.56;;;10.60;72.39
54994;BME280;40891;47.242;8.648;2023-04-01T08:27:16;95448.66;;;10.34;72.23
54994;BME280;40891;47.242;8.648;2023-04-01T08:29:48;95441.44;;;10.27;72.50
54994;BME280;40891;47.242;8.648;2023-04-01T08:32:20;95441.63;;;10.24;73.25
54994;BME280;40891;47.242;8.648;2023-04-01T08:35:02;95440.44;;;10.16;73.71
54994;BME280;40891;47.242;8.648;2023-04-01T08:37:35;95444.50;;;10.06;73.13
54994;BME280;40891;47.242;8.648;2023-04-01T08:40:24;95441.72;;;10.06;77.85
54994;BME280;40891;47.242;8.648;2023-04-01T09:11:06;95439.59;;;10.48;81.08
54994;BME280;40891;47.242;8.648;2023-04-01T09:13:44;95449.00;;;10.27;73.75
54994;BME280;40891;47.242;8.648;2023-04-01T09:16:21;95438.56;;;10.22;74.78
54994;BME280;40891;47.242;8.648;2023-04-01T09:19:04;95447.25;;;10.39;76.63
54994;BME280;40891;47.242;8.648;2023-04-01T09:21:50;95436.44;;;10.55;77.12
54994;BME280;40891;47.242;8.648;2023-04-01T09:27:29;95431.69;;;10.70;70.72
54994;BME280;40891;47.242;8.648;2023-04-01T09:40:57;95440.22;;;10.81;72.18
54994;BME280;40891;47.242;8.648;2023-04-01T10:00:02;95435.63;;;11.66;70.03
54994;BME280;40891;47.242;8.648;2023-04-01T10:08:50;95433.81;;;11.63;65.65
54994;BME280;40891;47.242;8.648;2023-04-01T10:14:42;95424.88;;;11.74;64.24
54994;BME280;40891;47.242;8.648;2023-04-01T10:42:03;95419.31;;;12.49;61.77
54994;BME280;40891;47.242;8.648;2023-04-01T10:56:06;95418.19;;;12.41;65.72
54994;BME280;40891;47.242;8.648;2023-04-01T11:02:04;95423.41;;;12.13;65.65
54994;BME280;40891;47.242;8.648;2023-04-01T11:16:31;95417.50;;;12.66;61.65
54994;BME280;40891;47.242;8.648;2023-04-01T11:19:10;95405.69;;;13.02;61.53
54994;BME280;40891;47.242;8.648;2023-04-01T11:22:08;95408.09;;;13.40;60.33
54994;BME280;40891;47.242;8.648;2023-04-01T11:25:18;95413.25;;;12.96;58.27
54994;BME280;40891;47.242;8.648;2023-04-01T11:30:32;95423.50;;;12.18;60.69
54994;BME280;40891;47.242;8.648;2023-04-01T11:33:14;95449.38;;;11.70;62.52
54994;BME280;40891;47.242;8.648;2023-04-01T11:36:03;95447.16;;;11.59;66.09
54994;BME280;40891;47.242;8.648;2023-04-01T11:44:07;95433.13;;;11.83;66.03
54994;BME280;40891;47.242;8.648;2023-04-01T11:49:36;95436.47;;;12.42;62.55
54994;BME280;40891;47.242;8.648;2023-04-01T12:00:50;95433.22;;;12.69;60.04
54994;BME280;40891;47.242;8.648;2023-04-01T12:09:18;95436.31;;;12.51;58.07
54994;BME280;40891;47.242;8.648;2023-04-01T12:11:48;95438.75;;;12.43;55.74
54994;BME280;40891;47.242;8.648;2023-04-01T12:14:32;95431.09;;;12.58;55.40
54994;BME280;40891;47.242;8.648;2023-04-01T12:19:56;95423.34;;;12.68;58.74
54994;BME280;40891;47.242;8.648;2023-04-01T12:22:40;95423.56;;;12.90;56.22
54994;BME280;40891;47.242;8.648;2023-04-01T12:30:29;95431.28;;;12.75;60.50
54994;BME280;40891;47.242;8.648;2023-04-01T12:33:18;95430.63;;;12.40;61.20
54994;BME280;40891;47.242;8.648;2023-04-01T12:50:06;95413.88;;;13.62;55.93
54994;BME280;40891;47.242;8.648;2023-04-01T13:11:34;95389.56;;;18.53;43.32
54994;BME280;40891;47.242;8.648;2023-04-01T13:19:37;95398.28;;;16.21;47.19
54994;BME280;40891;47.242;8.648;2023-04-01T13:25:13;95367.78;;;15.35;49.96
54994;BME280;40891;47.242;8.648;2023-04-01T13:27:48;95411.06;;;14.42;48.44
54994;BME280;40891;47.242;8.648;2023-04-01T13:35:36;95401.66;;;14.39;48.84
54994;BME280;40891;47.242;8.648;2023-04-01T13:43:39;95380.00;;;15.21;47.24
54994;BME280;40891;47.242;8.648;2023-04-01T13:49:27;95383.31;;;14.32;49.85
54994;BME280;40891;47.242;8.648;2023-04-01T13:52:17;95388.03;;;14.15;50.49
54994;BME280;40891;47.242;8.648;2023-04-01T13:55:06;95393.41;;;14.19;50.12
54994;BME280;40891;47.242;8.648;2023-04-01T14:00:51;95380.19;;;14.25;49.99
54994;BME280;40891;47.242;8.648;2023-04-01T14:03:42;95383.38;;;14.49;49.95
54994;BME280;40891;47.242;8.648;2023-04-01T14:06:20;95375.25;;;14.03;50.62
54994;BME280;40891;47.242;8.648;2023-04-01T14:08:58;95374.50;;;14.03;50.20
54994;BME280;40891;47.242;8.648;2023-04-01T14:11:44;95368.03;;;14.28;51.17
54994;BME280;40891;47.242;8.648;2023-04-01T14:14:54;95361.97;;;14.35;51.13
54994;BME280;40891;47.242;8.648;2023-04-01T14:20:26;95349.31;;;14.45;50.50
54994;BME280;40891;47.242;8.648;2023-04-01T14:23:13;95337.22;;;15.04;50.67
54994;BME280;40891;47.242;8.648;2023-04-01T14:28:31;95353.22;;;14.86;50.30
54994;BME280;40891;47.242;8.648;2023-04-01T14:33:56;95361.78;;;14.55;51.71
54994;BME280;40891;47.242;8.648;2023-04-01T14:39:15;95366.63;;;14.01;53.60
54994;BME280;40891;47.242;8.648;2023-04-01T14:42:14;95363.72;;;13.85;53.42
54994;BME280;40891;47.242;8.648;2023-04-01T14:50:13;95378.38;;;13.37;53.84
54994;BME280;40891;47.242;8.648;2023-04-01T14:52:43;95382.00;;;13.43;55.92
54994;BME280;40891;47.242;8.648;2023-04-01T14:55:21;95384.09;;;13.23;55.34
54994;BME280;40891;47.242;8.648;2023-04-01T14:58:18;95390.56;;;13.09;57.72
54994;BME280;40891;47.242;8.648;2023-04-01T15:03:26;95398.38;;;13.05;58.47
54994;BME280;40891;47.242;8.648;2023-04-01T15:12:00;95399.31;;;12.96;58.41
54994;BME280;40891;47.242;8.648;2023-04-01T15:17:27;95409.34;;;13.08;59.35
54994;BME280;40891;47.242;8.648;2023-04-01T15:22:51;95400.34;;;12.98;60.07
54994;BME280;40891;47.242;8.648;2023-04-01T15:25:51;95411.97;;;12.97;59.78
54994;BME280;40891;47.242;8.648;2023-04-01T15:28:35;95393.75;;;13.02;60.69
54994;BME280;40891;47.242;8.648;2023-04-01T15:31:16;95390.63;;;13.14;62.32
54994;BME280;40891;47.242;8.648;2023-04-01T15:38:58;95383.53;;;13.87;63.55
54994;BME280;40891;47.242;8.648;2023-04-01T15:42:32;95378.03;;;13.98;62.55
54994;BME280;40891;47.242;8.648;2023-04-01T15:46:56;95389.47;;;14.00;61.60
54994;BME280;40891;47.242;8.648;2023-04-01T15:49:44;95400.69;;;13.69;62.36
54994;BME280;40891;47.242;8.648;2023-04-01T16:00:28;95389.19;;;15.38;56.45
54994;BME280;40891;47.242;8.648;2023-04-01T16:05:50;95386.00;;;14.64;58.82
54994;BME280;40891;47.242;8.648;2023-04-01T16:13:40;95401.84;;;14.30;60.33
54994;BME280;40891;47.242;8.648;2023-04-01T16:16:19;95407.84;;;14.17;61.06
54994;BME280;40891;47.242;8.648;2023-04-01T16:24:17;95411.25;;;13.53;62.33
54994;BME280;40891;47.242;8.648;2023-04-01T16:26:52;95410.19;;;13.45;63.45
54994;BME280;40891;47.242;8.648;2023-04-01T16:29:38;95413.16;;;13.36;64.06
54994;BME280;40891;47.242;8.648;2023-04-01T16:35:15;95426.69;;;13.18;64.37
54994;BME280;40891;47.242;8.648;2023-04-01T16:43:50;95444.53;;;12.80;64.49
54994;BME280;40891;47.242;8.648;2023-04-01T16:45:53;95453.19;;;12.62;65.41
54994;BME280;40891;47.242;8.648;2023-04-01T16:48:29;95455.91;;;12.36;66.27
54994;BME280;40891;47.242;8.648;2023-04-01T16:51:04;95457.03;;;11.89;69.20
54994;BME280;40891;47.242;8.648;2023-04-01T16:53:42;95493.13;;;11.11;81.21
54994;BME280;40891;47.242;8.648;2023-04-01T16:56:17;95496.56;;;10.53;88.22
54994;BME280;40891;47.242;8.648;2023-04-01T17:01:28;95500.56;;;9.95;93.05
54994;BME280;40891;47.242;8.648;2023-04-01T17:04:00;95506.91;;;9.87;91.15
54994;BME280;40891;47.242;8.648;2023-04-01T17:17:43;95484.13;;;10.15;81.79
54994;BME280;40891;47.242;8.648;2023-04-01T17:20:26;95476.59;;;10.07;81.62
54994;BME280;40891;47.242;8.648;2023-04-01T17:23:03;95480.00;;;10.02;81.25
54994;BME280;40891;47.242;8.648;2023-04-01T17:26:04;95483.47;;;9.88;84.45
54994;BME280;40891;47.242;8.648;2023-04-01T17:33:51;95496.81;;;9.75;83.46
54994;BME280;40891;47.242;8.648;2023-04-01T17:36:30;95494.28;;;9.86;79.82
54994;BME280;40891;47.242;8.648;2023-04-01T17:39:08;95506.66;;;9.76;82.96
54994;BME280;40891;47.242;8.648;2023-04-01T17:41:54;95503.00;;;9.70;83.29
54994;BME280;40891;47.242;8.648;2023-04-01T17:44:37;95508.41;;;9.64;83.09
54994;BME280;40891;47.242;8.648;2023-04-01T17:47:24;95507.81;;;9.60;84.09
54994;BME280;40891;47.242;8.648;2023-04-01T17:50:02;95505.06;;;9.51;85.70
54994;BME280;40891;47.242;8.648;2023-04-01T17:58:32;95498.13;;;9.46;86.34
54994;BME280;40891;47.242;8.648;2023-04-01T18:04:07;95512.00;;;9.37;86.48
54994;BME280;40891;47.242;8.648;2023-04-01T18:06:39;95512.50;;;9.36;87.16
54994;BME280;40891;47.242;8.648;2023-04-01T18:12:36;95512.63;;;9.41;86.94
54994;BME280;40891;47.242;8.648;2023-04-01T18:18:10;95524.97;;;9.40;86.21
54994;BME280;40891;47.242;8.648;2023-04-01T18:25:44;95523.41;;;9.48;85.58
54994;BME280;40891;47.242;8.648;2023-04-01T18:28:32;95528.03;;;9.42;82.35
54994;BME280;40891;47.242;8.648;2023-04-01T18:33:48;95535.13;;;9.43;83.17
54994;BME280;40891;47.242;8.648;2023-04-01T18:36:35;95534.34;;;9.43;83.41
54994;BME280;40891;47.242;8.648;2023-04-01T18:39:11;95529.44;;;9.38;85.03
54994;BME280;40891;47.242;8.648;2023-04-01T18:44:34;95546.38;;;9.40;82.99
54994;BME280;40891;47.242;8.648;2023-04-01T18:47:25;95547.72;;;9.53;86.81
54994;BME280;40891;47.242;8.648;2023-04-01T18:52:52;95563.97;;;9.46;84.08
54994;BME280;40891;47.242;8.648;2023-04-01T18:55:40;95567.94;;;9.45;83.56
54994;BME280;40891;47.242;8.648;2023-04-01T18:59:05;95581.53;;;9.43;84.25
54994;BME280;40891;47.242;8.648;2023-04-01T19:04:33;95571.19;;;9.43;81.66
54994;BME280;40891;47.242;8.648;2023-04-01T19:13:09;95574.72;;;9.53;81.84
54994;BME280;40891;47.242;8.648;2023-04-01T19:15:56;95577.94;;;9.51;82.30
54994;BME280;40891;47.242;8.648;2023-04-01T19:18:43;95585.50;;;9.42;82.49
54994;BME280;40891;47.242;8.648;2023-04-01T19:21:19;95591.06;;;9.42;81.92
54994;BME280;40891;47.242;8.648;2023-04-01T19:26:32;95595.53;;;9.39;82.45
54994;BME280;40891;47.242;8.648;2023-04-01T19:29:49;95605.41;;;9.40;82.86
54994;BME280;40891;47.242;8.648;2023-04-01T19:35:17;95605.88;;;9.39;83.60
54994;BME280;40891;47.242;8.648;2023-04-01T19:37:51;95612.50;;;9.41;84.28
54994;BME280;40891;47.242;8.648;2023-04-01T19:43:14;95599.88;;;9.40;84.79
54994;BME280;40891;47.242;8.648;2023-04-01T19:45:51;95597.25;;;9.46;83.03
54994;BME280;40891;47.242;8.648;2023-04-01T19:51:03;95607.72;;;9.42;84.10
54994;BME280;40891;47.242;8.648;2023-04-01T19:53:50;95630.97;;;9.44;84.16
54994;BME280;40891;47.242;8.648;2023-04-01T19:56:22;95634.72;;;9.41;86.28
54994;BME280;40891;47.242;8.648;2023-04-01T19:58:54;95628.22;;;9.26;84.41
54994;BME280;40891;47.242;8.648;2023-04-01T20:04:20;95617.44;;;9.10;86.42
54994;BME280;40891;47.242;8.648;2023-04-01T20:07:11;95618.84;;;9.06;86.53
54994;BME280;40891;47.242;8.648;2023-04-01T20:10:19;95615.28;;;9.05;85.88
54994;BME280;40891;47.242;8.648;2023-04-01T20:15:21;95622.38;;;9.15;85.28
54994;BME280;40891;47.242;8.648;2023-04-01T20:17:51;95635.94;;;9.22;85.10
54994;BME280;40891;47.242;8.648;2023-04-01T20:20:21;95634.38;;;9.21;85.39
54994;BME280;40891;47.242;8.648;2023-04-01T20:25:54;95634.53;;;9.36;85.50
54994;BME280;40891;47.242;8.648;2023-04-01T20:29:02;95635.78;;;9.26;85.89
54994;BME280;40891;47.242;8.648;2023-04-01T20:31:34;95630.53;;;9.28;85.95
54994;BME280;40891;47.242;8.648;2023-04-01T20:34:26;95637.78;;;9.25;86.29
54994;BME280;40891;47.242;8.648;2023-04-01T20:40:17;95633.63;;;9.30;85.95
54994;BME280;40891;47.242;8.648;2023-04-01T20:48:34;95639.03;;;9.24;86.24
54994;BME280;40891;47.242;8.648;2023-04-01T20:51:07;95635.94;;;9.22;84.96
54994;BME280;40891;47.242;8.648;2023-04-01T20:53:43;95637.78;;;9.16;85.48
54994;BME280;40891;47.242;8.648;2023-04-01T20:56:48;95633.47;;;9.15;84.50
54994;BME280;40891;47.242;8.648;2023-04-01T21:02:23;95642.53;;;9.16;84.05
54994;BME280;40891;47.242;8.648;2023-04-01T21:13:31;95669.47;;;8.97;88.27
54994;BME280;40891;47.242;8.648;2023-04-01T21:37:27;95643.28;;;8.80;84.53
54994;BME280;40891;47.242;8.648;2023-04-01T21:42:49;95655.31;;;8.86;85.37